KMTW/MTW METAR and TAF weather

Enter ICAO airport designator
Station Type Date Time Source
KMTW METAR 2024/06/14 01:56 UTC NOAA

KMTW 140156Z AUTO 28004KT 10SM CLR 24/10 A2983 RMK AO2 SLP099 T02390100


Station Type Date Time Source
KMTW Decoded METAR 2024/06/14 01:56 UTC NOAA

Manitowoc, Manitowoc County Airport, WI, United States (KMTW) 44-08N 087-41W
Jun 13, 2024 - 09:56 PM EDT / 2024.06.14 0156 UTC
Wind: from the W (280 degrees) at 5 MPH (4 KT):0
Visibility: 10 mile(s):0
Sky conditions: clear
Temperature: 75.0 F (23.9 C)
Dew Point: 50.0 F (10.0 C)
Relative Humidity: 41%
Pressure (altimeter): 29.83 in. Hg (1010 hPa)
ob: KMTW 140156Z AUTO 28004KT 10SM CLR 24/10 A2983 RMK AO2 SLP099 T02390100
cycle: 2

Station Type Date Time Source
KMTW TAF 2024/06/13 18:30 UTC NOAA